createdAt,value
2018-05-29T00:00:14.152Z,95266
2018-05-29T00:02:44.804Z,95265
2018-05-29T00:05:15.609Z,95262
2018-05-29T00:07:47.184Z,95260
2018-05-29T00:10:18.084Z,95253
2018-05-29T00:12:48.715Z,95254
2018-05-29T00:15:19.336Z,95257
2018-05-29T00:17:49.192Z,95265
2018-05-29T00:20:19.036Z,95261
2018-05-29T00:22:48.886Z,95257
2018-05-29T00:25:18.759Z,95256
2018-05-29T00:27:48.624Z,95255
2018-05-29T00:30:19.280Z,95257
2018-05-29T00:32:49.103Z,95258
2018-05-29T00:35:18.944Z,95264
2018-05-29T00:37:48.826Z,95263
2018-05-29T00:40:18.692Z,95268
2018-05-29T00:42:48.604Z,95267
2018-05-29T00:45:19.888Z,95258
2018-05-29T00:47:50.524Z,95257
2018-05-29T00:50:20.391Z,95262
2018-05-29T00:52:51.028Z,95264
2018-05-29T00:55:37.716Z,95264
2018-05-29T00:58:08.512Z,95264
2018-05-29T01:00:38.445Z,95250
2018-05-29T01:03:08.308Z,95249
2018-05-29T01:05:39.083Z,95249
2018-05-29T01:08:09.816Z,95249
2018-05-29T01:10:39.693Z,95252
2018-05-29T01:13:10.333Z,95259
2018-05-29T01:15:41.164Z,95254
2018-05-29T01:18:11.069Z,95255
2018-05-29T01:20:41.708Z,95246
2018-05-29T01:23:11.624Z,95253
2018-05-29T01:25:41.496Z,95260
2018-05-29T01:28:12.211Z,95259
2018-05-29T01:30:42.085Z,95258
2018-05-29T01:33:12.056Z,95260
2018-05-29T01:35:42.733Z,95257
2018-05-29T01:38:12.604Z,95259
2018-05-29T01:40:43.253Z,95261
2018-05-29T01:43:13.829Z,95263
2018-05-29T01:45:43.744Z,95262
2018-05-29T01:48:13.672Z,95259
2018-05-29T01:50:43.568Z,95255
2018-05-29T01:53:13.436Z,95256
2018-05-29T01:55:44.084Z,95252
2018-05-29T01:58:14.712Z,95250
2018-05-29T02:00:44.624Z,95254
2018-05-29T02:03:15.373Z,95245
2018-05-29T02:05:46.812Z,95243
2018-05-29T02:08:16.704Z,95245
2018-05-29T02:10:47.386Z,95246
2018-05-29T02:13:17.284Z,95245
2018-05-29T02:15:48.013Z,95238
2018-05-29T02:18:18.836Z,95235
2018-05-29T02:20:49.572Z,95232
2018-05-29T02:23:20.213Z,95229
2018-05-29T02:25:51.044Z,95235
2018-05-29T02:28:20.904Z,95230
2018-05-29T02:30:51.580Z,95231
2018-05-29T02:33:21.414Z,95227
2018-05-29T02:35:52.048Z,95225
2018-05-29T02:38:21.903Z,95226
2018-05-29T02:40:51.776Z,95224
2018-05-29T02:43:22.441Z,95230
2018-05-29T02:45:52.292Z,95232
2018-05-29T02:48:22.192Z,95228
2018-05-29T02:50:52.852Z,95236
2018-05-29T02:53:23.453Z,95229
2018-05-29T02:55:53.288Z,95226
2018-05-29T02:58:23.152Z,95222
2018-05-29T03:00:53.004Z,95228
2018-05-29T03:03:23.644Z,95232
2018-05-29T03:05:54.289Z,95233
2018-05-29T03:08:25.032Z,95233
2018-05-29T03:10:54.924Z,95241
2018-05-29T03:13:24.772Z,95243
2018-05-29T03:15:54.636Z,95245
2018-05-29T03:18:25.289Z,95255
2018-05-29T03:20:56.354Z,95254
2018-05-29T03:23:26.205Z,95260
2018-05-29T03:25:56.063Z,95261
2018-05-29T03:28:26.011Z,95255
2018-05-29T03:30:55.849Z,95252
2018-05-29T03:33:25.712Z,95253
2018-05-29T03:35:56.476Z,95252
2018-05-29T03:38:26.328Z,95255
2018-05-29T03:40:57.005Z,95264
2018-05-29T03:43:26.872Z,95259
2018-05-29T03:45:56.783Z,95265
2018-05-29T03:48:27.412Z,95263
2018-05-29T03:50:59.474Z,95261
2018-05-29T03:53:30.132Z,95258
2018-05-29T03:56:00.749Z,95259
2018-05-29T03:58:31.403Z,95258
2018-05-29T04:01:02.112Z,95264
2018-05-29T04:03:31.963Z,95251
2018-05-29T04:06:01.788Z,95250
2018-05-29T04:08:32.508Z,95253
2018-05-29T04:11:02.352Z,95251
2018-05-29T04:13:32.227Z,95250
2018-05-29T04:16:02.832Z,95249
2018-05-29T04:18:32.693Z,95244
2018-05-29T04:21:02.649Z,95245
2018-05-29T04:23:32.533Z,95242
2018-05-29T04:26:02.378Z,95245
2018-05-29T04:28:32.232Z,95248
2018-05-29T04:31:02.110Z,95249
2018-05-29T04:33:31.984Z,95252
2018-05-29T04:36:01.889Z,95246
2018-05-29T04:38:31.796Z,95251
2018-05-29T04:41:01.646Z,95263
2018-05-29T04:43:31.550Z,95260
2018-05-29T04:46:01.445Z,95258
2018-05-29T04:48:31.312Z,95257
2018-05-29T04:51:01.995Z,95258
2018-05-29T04:53:32.688Z,95257
2018-05-29T04:56:02.605Z,95253
2018-05-29T04:58:32.532Z,95252
2018-05-29T05:01:02.390Z,95250
2018-05-29T05:03:32.269Z,95249
2018-05-29T05:06:02.177Z,95246
2018-05-29T05:08:32.076Z,95243
2018-05-29T05:11:02.711Z,95247
2018-05-29T05:13:33.243Z,95248
2018-05-29T05:16:03.144Z,95257
2018-05-29T05:18:33.769Z,95255
2018-05-29T05:21:04.424Z,95249
2018-05-29T05:23:34.252Z,95258
2018-05-29T05:26:05.077Z,95246
2018-05-29T05:28:34.929Z,95247
2018-05-29T05:31:04.784Z,95247
2018-05-29T05:33:35.407Z,95246
2018-05-29T05:36:06.049Z,95244
2018-05-29T05:41:13.466Z,95247
2018-05-29T05:43:43.349Z,95251
2018-05-29T05:46:14.409Z,95252
2018-05-29T05:48:45.050Z,95250
2018-05-29T05:51:14.941Z,95251
2018-05-29T05:53:45.944Z,95249
2018-05-29T05:56:15.793Z,95248
2018-05-29T05:58:46.432Z,95249
2018-05-29T06:01:16.332Z,95246
2018-05-29T06:03:46.952Z,95242
2018-05-29T06:06:17.637Z,95244
2018-05-29T06:08:47.488Z,95244
2018-05-29T06:11:17.389Z,95236
2018-05-29T06:13:47.268Z,95236
2018-05-29T06:16:17.193Z,95241
2018-05-29T06:18:47.783Z,95233
2018-05-29T06:21:18.465Z,95237
2018-05-29T06:23:49.101Z,95239
2018-05-29T06:26:19.020Z,95239
2018-05-29T06:28:48.873Z,95232
2018-05-29T06:31:19.507Z,95230
2018-05-29T06:33:50.151Z,95239
2018-05-29T06:36:20.002Z,95239
2018-05-29T06:38:50.802Z,95238
2018-05-29T06:41:21.496Z,95235
2018-05-29T06:43:52.203Z,95238
2018-05-29T06:46:22.070Z,95234
2018-05-29T06:48:52.932Z,95232
2018-05-29T06:51:22.828Z,95238
2018-05-29T06:53:53.496Z,95234
2018-05-29T06:56:23.916Z,95238
2018-05-29T06:58:53.836Z,95233
2018-05-29T07:01:23.716Z,95229
2018-05-29T07:03:54.438Z,95226
2018-05-29T07:06:25.085Z,95228
2018-05-29T07:08:55.744Z,95225
2018-05-29T07:11:25.605Z,95224
2018-05-29T07:13:56.250Z,95223
2018-05-29T07:16:26.168Z,95226
2018-05-29T07:18:56.828Z,95223
2018-05-29T07:21:26.761Z,95222
2018-05-29T07:23:56.630Z,95216
2018-05-29T07:26:27.340Z,95214
2018-05-29T07:28:57.988Z,95207
2018-05-29T07:31:28.617Z,95211
2018-05-29T07:33:59.267Z,95208
2018-05-29T07:36:29.132Z,95208
2018-05-29T07:39:00.005Z,95207
2018-05-29T07:41:30.727Z,95204
2018-05-29T07:44:01.465Z,95205
2018-05-29T07:46:31.372Z,95199
2018-05-29T07:49:02.019Z,95202
2018-05-29T07:51:32.680Z,95200
2018-05-29T07:54:03.384Z,95195
2018-05-29T07:56:34.044Z,95196
2018-05-29T07:59:04.796Z,95193
2018-05-29T08:01:34.672Z,95194
2018-05-29T08:04:04.545Z,95193
2018-05-29T08:06:34.408Z,95197
2018-05-29T08:09:04.396Z,95192
2018-05-29T08:11:34.297Z,95187
2018-05-29T08:14:04.996Z,95184
2018-05-29T08:16:34.878Z,95183
2018-05-29T08:19:04.709Z,95187
2018-05-29T08:21:35.332Z,95183
2018-05-29T08:24:06.964Z,95190
2018-05-29T08:26:37.611Z,95188
2018-05-29T08:29:07.464Z,95179
2018-05-29T08:31:37.333Z,95185
2018-05-29T08:34:07.168Z,95181
2018-05-29T08:36:37.964Z,95179
2018-05-29T08:39:08.624Z,95179
2018-05-29T08:41:39.323Z,95172
2018-05-29T08:44:09.932Z,95175
2018-05-29T08:46:39.792Z,95168
2018-05-29T08:49:09.679Z,95174
2018-05-29T08:51:40.389Z,95173
2018-05-29T08:54:10.237Z,95173
2018-05-29T08:56:40.152Z,95177
2018-05-29T08:59:10.773Z,95172
2018-05-29T09:01:41.419Z,95171
2018-05-29T09:04:11.372Z,95171
2018-05-29T09:06:42.049Z,95170
2018-05-29T09:09:12.693Z,95170
2018-05-29T09:11:43.328Z,95172
2018-05-29T09:14:13.952Z,95170
2018-05-29T09:16:43.854Z,95167
2018-05-29T09:19:14.397Z,95169
2018-05-29T09:21:45.044Z,95164
2018-05-29T09:24:15.757Z,95163
2018-05-29T09:26:46.436Z,95164
2018-05-29T09:29:17.148Z,95167
2018-05-29T09:31:47.069Z,95156
2018-05-29T09:34:17.725Z,95163
2018-05-29T09:36:48.397Z,95156
2018-05-29T09:39:19.048Z,95155
2018-05-29T09:41:49.748Z,95154
2018-05-29T09:44:20.416Z,95148
2018-05-29T09:46:50.343Z,95154
2018-05-29T09:49:20.229Z,95156
2018-05-29T09:51:50.844Z,95153
2018-05-29T09:54:21.492Z,95160
2018-05-29T09:56:51.377Z,95149
2018-05-29T09:59:22.060Z,95139
2018-05-29T10:01:51.915Z,95145
2018-05-29T10:04:22.597Z,95140
2018-05-29T10:06:52.518Z,95148
2018-05-29T10:09:23.116Z,95152
2018-05-29T10:11:53.775Z,95151
2018-05-29T10:14:23.625Z,95146
2018-05-29T10:16:54.298Z,95144
2018-05-29T10:19:25.067Z,95143
2018-05-29T10:21:55.656Z,95137
2018-05-29T10:24:26.309Z,95135
2018-05-29T10:26:56.153Z,95131
2018-05-29T10:29:26.027Z,95132
2018-05-29T10:31:56.645Z,95128
2018-05-29T10:34:27.281Z,95136
2018-05-29T10:36:57.927Z,95130
2018-05-29T10:39:27.794Z,95129
2018-05-29T10:41:57.649Z,95140
2018-05-29T10:44:29.092Z,95142
2018-05-29T10:46:58.952Z,95134
2018-05-29T10:49:29.573Z,95137
2018-05-29T10:52:00.255Z,95131
2018-05-29T10:54:30.904Z,95127
2018-05-29T10:57:01.549Z,95125
2018-05-29T10:59:31.450Z,95122
2018-05-29T11:02:01.312Z,95128
2018-05-29T11:04:32.009Z,95121
2018-05-29T11:07:01.915Z,95116
2018-05-29T11:09:31.752Z,95111
2018-05-29T11:12:01.628Z,95110
2018-05-29T11:14:32.253Z,95116
2018-05-29T11:17:02.904Z,95112
2018-05-29T11:19:32.804Z,95105
2018-05-29T11:22:02.736Z,95104
2018-05-29T11:24:32.564Z,95101
2018-05-29T11:27:02.456Z,95094
2018-05-29T11:29:32.364Z,95095
2018-05-29T11:32:02.980Z,95095
2018-05-29T11:34:32.839Z,95092
2018-05-29T11:37:03.564Z,95089
2018-05-29T11:39:33.424Z,95088
2018-05-29T11:42:03.257Z,95085
2018-05-29T11:44:33.192Z,95075
2018-05-29T11:47:03.531Z,95075
2018-05-29T11:49:33.408Z,95073
2018-05-29T11:52:04.077Z,95069
2018-05-29T11:54:33.947Z,95063
2018-05-29T11:57:04.718Z,95054
2018-05-29T11:59:34.557Z,95048
2018-05-29T12:02:04.506Z,95039
2018-05-29T12:04:35.169Z,95042
2018-05-29T12:07:05.072Z,95038
2018-05-29T12:09:34.948Z,95033
2018-05-29T12:12:23.373Z,95035
2018-05-29T12:14:54.196Z,95032
2018-05-29T12:17:24.067Z,95028
2018-05-29T12:19:53.925Z,95021
2018-05-29T12:22:23.848Z,95025
2018-05-29T12:24:53.701Z,95009
2018-05-29T12:27:23.534Z,95008
2018-05-29T12:29:53.439Z,95000
2018-05-29T12:32:24.076Z,95003
2018-05-29T12:34:54.732Z,95005
2018-05-29T12:37:26.233Z,94996
2018-05-29T12:39:56.885Z,94992
2018-05-29T12:42:27.944Z,94990
2018-05-29T12:44:57.804Z,94993
2018-05-29T12:47:28.469Z,94995
2018-05-29T12:49:58.371Z,94984
2018-05-29T12:52:29.052Z,94981
2018-05-29T12:54:58.909Z,94979
2018-05-29T12:57:29.547Z,94985
2018-05-29T13:00:00.200Z,94977
2018-05-29T13:02:30.869Z,94972
2018-05-29T13:05:00.757Z,94970
2018-05-29T13:07:31.596Z,94963
2018-05-29T13:10:01.469Z,94965
2018-05-29T13:12:32.149Z,94964
2018-05-29T13:15:02.038Z,94959
2018-05-29T13:17:32.669Z,94954
2018-05-29T13:20:02.527Z,94950
2018-05-29T13:22:32.438Z,94950
2018-05-29T13:25:03.344Z,94948
2018-05-29T13:27:33.932Z,94945
2018-05-29T13:30:04.647Z,94934
2018-05-29T13:32:34.540Z,94941
2018-05-29T13:35:04.448Z,94934
2018-05-29T13:37:34.416Z,94929
2018-05-29T13:40:04.264Z,94931
2018-05-29T13:42:34.225Z,94929
2018-05-29T13:45:05.325Z,94917
2018-05-29T13:47:35.204Z,94913
2018-05-29T13:50:05.984Z,94906
2018-05-29T13:52:35.852Z,94895
2018-05-29T13:55:06.487Z,94899
2018-05-29T13:57:37.134Z,94912
2018-05-29T14:00:07.745Z,94907
2018-05-29T14:02:38.658Z,94896
2018-05-29T14:05:08.520Z,94890
2018-05-29T14:07:39.186Z,94883
2018-05-29T14:10:09.816Z,94891
2018-05-29T14:12:39.711Z,94901
2018-05-29T14:15:09.526Z,94898
2018-05-29T14:17:39.413Z,94888
2018-05-29T14:20:10.041Z,94886
2018-05-29T14:22:41.449Z,94886
2018-05-29T14:25:12.277Z,94881
2018-05-29T14:27:42.139Z,94883
2018-05-29T14:30:12.796Z,94890
2018-05-29T14:32:43.617Z,94886
2018-05-29T14:35:14.216Z,94889
2018-05-29T14:37:44.880Z,94884
2018-05-29T14:40:15.534Z,94881
2018-05-29T14:42:45.419Z,94878
2018-05-29T14:45:16.069Z,94876
2018-05-29T14:47:45.915Z,94866
2018-05-29T14:50:16.604Z,94864
2018-05-29T14:52:47.397Z,94854
2018-05-29T14:55:17.284Z,94852
2018-05-29T14:57:47.157Z,94853
2018-05-29T15:00:17.805Z,94846
2018-05-29T15:02:47.677Z,94846
2018-05-29T15:05:18.641Z,94843
2018-05-29T15:07:49.269Z,94843
2018-05-29T15:10:19.904Z,94838
2018-05-29T15:12:50.532Z,94832
2018-05-29T15:15:21.188Z,94834
2018-05-29T15:17:51.078Z,94834
2018-05-29T15:20:21.695Z,94836
2018-05-29T15:22:52.498Z,94839
2018-05-29T15:25:23.281Z,94840
2018-05-29T15:27:53.939Z,94831
2018-05-29T15:30:23.807Z,94823
2018-05-29T15:32:53.613Z,94828
2018-05-29T15:35:24.311Z,94824
2018-05-29T15:37:54.244Z,94823
2018-05-29T15:40:24.104Z,94821
2018-05-29T15:42:54.714Z,94824
2018-05-29T15:45:26.152Z,94819
2018-05-29T15:47:57.174Z,94816
2018-05-29T15:50:27.053Z,94812
2018-05-29T15:52:56.923Z,94801
2018-05-29T15:55:27.585Z,94808
2018-05-29T15:57:59.003Z,94804
2018-05-29T16:00:29.668Z,94806
2018-05-29T16:02:59.588Z,94809
2018-05-29T16:05:30.257Z,94811
2018-05-29T16:08:00.956Z,94814
2018-05-29T16:10:31.876Z,94815
2018-05-29T16:13:02.495Z,94806
2018-05-29T16:15:32.327Z,94813
2018-05-29T16:18:03.264Z,94814
2018-05-29T16:20:34.196Z,94799
2018-05-29T16:23:04.880Z,94802
2018-05-29T16:25:34.772Z,94801
2018-05-29T16:28:04.758Z,94803
2018-05-29T16:30:35.422Z,94790
2018-05-29T16:33:05.329Z,94804
2018-05-29T16:35:35.211Z,94795
2018-05-29T16:38:05.897Z,94785
2018-05-29T16:40:36.718Z,94797
2018-05-29T16:43:06.483Z,94789
2018-05-29T16:45:37.249Z,94780
2018-05-29T16:48:08.833Z,94778
2018-05-29T16:50:39.504Z,94776
2018-05-29T16:53:09.363Z,94780
2018-05-29T16:55:40.132Z,94780
2018-05-29T16:58:10.805Z,94783
2018-05-29T17:00:41.447Z,94787
2018-05-29T17:03:11.332Z,94794
2018-05-29T17:05:41.973Z,94796
2018-05-29T17:08:12.591Z,94798
2018-05-29T17:10:43.777Z,94798
2018-05-29T17:13:13.669Z,94802
2018-05-29T17:15:43.532Z,94798
2018-05-29T17:18:13.390Z,94810
2018-05-29T17:20:43.363Z,94807
2018-05-29T17:23:13.249Z,94809
2018-05-29T17:25:43.177Z,94817
2018-05-29T17:28:13.029Z,94816
2018-05-29T17:30:43.675Z,94815
2018-05-29T17:33:14.817Z,94813
2018-05-29T17:35:45.437Z,94818
2018-05-29T17:38:16.128Z,94820
2018-05-29T17:40:52.682Z,94828
2018-05-29T17:43:23.355Z,94830
2018-05-29T17:45:54.025Z,94830
2018-05-29T17:48:24.660Z,94834
2018-05-29T17:50:55.472Z,94832
2018-05-29T17:53:26.113Z,94843
2018-05-29T17:56:03.376Z,94834
2018-05-29T17:58:36.702Z,94839
2018-05-29T18:01:07.297Z,94836
2018-05-29T18:03:37.976Z,94841
2018-05-29T18:06:07.846Z,94842
2018-05-29T18:08:38.653Z,94843
2018-05-29T18:11:08.528Z,94845
2018-05-29T18:13:39.197Z,94846
2018-05-29T18:16:09.371Z,94848
2018-05-29T18:18:39.317Z,94842
2018-05-29T18:21:09.203Z,94845
2018-05-29T18:23:39.845Z,94847
2018-05-29T18:26:10.627Z,94848
2018-05-29T18:28:41.129Z,94851
2018-05-29T18:31:11.848Z,94849
2018-05-29T18:33:42.472Z,94855
2018-05-29T18:36:12.356Z,94863
2018-05-29T18:38:43.169Z,94865
2018-05-29T18:41:13.105Z,94871
2018-05-29T18:43:43.747Z,94872
2018-05-29T18:46:14.373Z,94870
2018-05-29T18:48:44.216Z,94880
2018-05-29T18:51:15.048Z,94889
2018-05-29T18:53:45.760Z,94897
2018-05-29T18:56:16.432Z,94895
2018-05-29T18:58:51.322Z,94893
2018-05-29T19:01:22.027Z,94903
2018-05-29T19:03:52.624Z,94905
2018-05-29T19:06:22.515Z,94909
2018-05-29T19:08:53.151Z,94909
2018-05-29T19:11:23.940Z,94908
2018-05-29T19:13:53.765Z,94919
2018-05-29T19:16:24.715Z,94925
2018-05-29T19:18:55.496Z,94929
2018-05-29T19:21:25.473Z,94932
2018-05-29T19:23:56.373Z,94938
2018-05-29T19:26:26.273Z,94939
2018-05-29T19:28:56.955Z,94947
2018-05-29T19:31:27.536Z,94944
2018-05-29T19:33:57.428Z,94947
2018-05-29T19:36:27.253Z,94942
2018-05-29T19:38:57.997Z,94943
2018-05-29T19:41:27.878Z,94948
2018-05-29T19:43:57.831Z,94954
2018-05-29T19:46:27.734Z,94956
2018-05-29T19:48:58.437Z,94962
2018-05-29T19:51:28.270Z,94960
2018-05-29T19:53:58.935Z,94960
2018-05-29T19:56:29.574Z,94966
2018-05-29T19:58:59.663Z,94967
2018-05-29T20:01:29.593Z,94968
2018-05-29T20:04:01.190Z,94972
2018-05-29T20:06:32.593Z,94977
2018-05-29T20:09:03.313Z,94980
2018-05-29T20:11:33.816Z,94987
2018-05-29T20:14:04.126Z,94999
2018-05-29T20:16:34.381Z,95011
2018-05-29T20:19:05.180Z,95014
2018-05-29T20:21:35.087Z,95017
2018-05-29T20:24:05.785Z,95014
2018-05-29T20:26:35.684Z,95027
2018-05-29T20:29:06.561Z,95035
2018-05-29T20:31:37.173Z,95036
2018-05-29T20:34:07.894Z,95043
2018-05-29T20:36:37.764Z,95046
2018-05-29T20:39:07.656Z,95051
2018-05-29T20:41:38.276Z,95051
2018-05-29T20:44:10.272Z,95055
2018-05-29T20:46:41.385Z,95050
2018-05-29T20:49:11.248Z,95046
2018-05-29T20:51:42.030Z,95039
2018-05-29T20:54:12.712Z,95039
2018-05-29T20:56:42.522Z,95045
2018-05-29T20:59:12.434Z,95049
2018-05-29T21:01:42.293Z,95052
2018-05-29T21:04:13.573Z,95058
2018-05-29T21:06:44.225Z,95060
2018-05-29T21:09:14.052Z,95062
2018-05-29T21:11:45.026Z,95054
2018-05-29T21:14:15.669Z,95058
2018-05-29T21:16:46.305Z,95054
2018-05-29T21:19:17.993Z,95063
2018-05-29T21:21:47.849Z,95066
2018-05-29T21:24:18.527Z,95072
2018-05-29T21:26:49.384Z,95073
2018-05-29T21:29:19.266Z,95079
2018-05-29T21:31:49.124Z,95085
2018-05-29T21:34:18.993Z,95080
2018-05-29T21:36:49.629Z,95084
2018-05-29T21:39:20.245Z,95085
2018-05-29T21:41:51.429Z,95095
2018-05-29T21:44:21.280Z,95097
2018-05-29T21:46:51.949Z,95101
2018-05-29T21:49:22.576Z,95102
2018-05-29T21:51:53.199Z,95108
2018-05-29T21:54:23.827Z,95112
2018-05-29T21:56:54.751Z,95118
2018-05-29T21:59:25.368Z,95124
2018-05-29T22:01:56.088Z,95120
2018-05-29T22:04:25.954Z,95125
2018-05-29T22:06:56.579Z,95125
2018-05-29T22:09:27.237Z,95126
2018-05-29T22:11:57.088Z,95133
2018-05-29T22:14:26.945Z,95139
2018-05-29T22:16:57.569Z,95137
2018-05-29T22:19:28.156Z,95138
2018-05-29T22:21:58.016Z,95132
2018-05-29T22:24:28.624Z,95133
2018-05-29T22:26:58.465Z,95139
2018-05-29T22:29:29.052Z,95144
2018-05-29T22:31:59.711Z,95144
2018-05-29T22:34:30.365Z,95139
2018-05-29T22:37:00.232Z,95134
2018-05-29T22:39:30.914Z,95145
2018-05-29T22:42:00.768Z,95147
2018-05-29T22:44:30.629Z,95148
2018-05-29T22:47:01.295Z,95150
2018-05-29T22:49:31.159Z,95150
2018-05-29T22:52:01.808Z,95145
2018-05-29T22:54:31.676Z,95156
2018-05-29T22:57:02.349Z,95166
2018-05-29T22:59:32.945Z,95166
2018-05-29T23:02:03.760Z,95174
2018-05-29T23:04:34.449Z,95171
2018-05-29T23:07:05.089Z,95178
2018-05-29T23:09:34.955Z,95180
2018-05-29T23:12:04.856Z,95182
2018-05-29T23:14:34.715Z,95185
2018-05-29T23:17:04.612Z,95182
2018-05-29T23:19:35.252Z,95182
2018-05-29T23:22:06.092Z,95176
2018-05-29T23:24:35.988Z,95180
2018-05-29T23:27:06.640Z,95180
2018-05-29T23:29:37.284Z,95183
2018-05-29T23:32:08.189Z,95189
2018-05-29T23:34:38.827Z,95190
2018-05-29T23:37:09.452Z,95196
2018-05-29T23:39:40.128Z,95196
2018-05-29T23:42:10.111Z,95204
2018-05-29T23:44:40.345Z,95209
2018-05-29T23:47:10.976Z,95214
2018-05-29T23:49:41.616Z,95210
2018-05-29T23:52:12.144Z,95214
2018-05-29T23:54:42.003Z,95214
2018-05-29T23:57:12.734Z,95213
2018-05-29T23:59:42.576Z,95207
